Terminal Aerodrome Forecast
Issued by NWS

Home | Current Version | Previous Version | Text Only | Print | Product List | Glossary On
Versions: 1 2 3 4 5 6 7 8 9 10 11 12 13 14 15
000
FTUS43 KAPX 250543
TAFMBL
TAF
KMBL 250543Z 2506/2606 14008KT 6SM -RA SCT008 OVC050 WS020/19040KT
      TEMPO 2506/2509 1SM RA BR OVC008
     FM250900 16007KT P6SM BKN030 OVC250 WS020/20040KT
     FM251400 19010G17KT P6SM BKN035
     FM251900 22011G18KT P6SM VCSH BKN040
     FM260100 22007KT P6SM FEW070 SCT250
      AMD LTD TO CLD VIS AND WIND=

USA.gov is the U.S. government's official web portal to all federal, state and local government web resources and services.